sensor_id;sensor_type;location;lat;lon;timestamp;temperature;humidity
72128;DHT22;60000;51.030;7.024;2023-04-15T00:01:49;6.85;69.39
72128;DHT22;60000;51.030;7.024;2023-04-15T00:04:14;6.82;69.56
72128;DHT22;60000;51.030;7.024;2023-04-15T00:06:40;6.84;69.64
72128;DHT22;60000;51.030;7.024;2023-04-15T00:09:05;6.78;69.62
72128;DHT22;60000;51.030;7.024;2023-04-15T00:11:31;6.72;69.81
72128;DHT22;60000;51.030;7.024;2023-04-15T00:13:56;6.71;70.01
72128;DHT22;60000;51.030;7.024;2023-04-15T00:16:22;6.67;69.91
72128;DHT22;60000;51.030;7.024;2023-04-15T00:18:48;6.60;70.27
72128;DHT22;60000;51.030;7.024;2023-04-15T00:21:13;6.57;70.25
72128;DHT22;60000;51.030;7.024;2023-04-15T00:23:39;6.54;70.32
72128;DHT22;60000;51.030;7.024;2023-04-15T00:26:04;6.45;70.34
72128;DHT22;60000;51.030;7.024;2023-04-15T00:28:30;6.37;70.73
72128;DHT22;60000;51.030;7.024;2023-04-15T00:30:55;6.33;71.32
72128;DHT22;60000;51.030;7.024;2023-04-15T00:33:20;6.27;71.42
72128;DHT22;60000;51.030;7.024;2023-04-15T00:35:46;6.20;71.73
72128;DHT22;60000;51.030;7.024;2023-04-15T00:38:11;6.16;71.54
72128;DHT22;60000;51.030;7.024;2023-04-15T00:40:37;6.12;71.82
72128;DHT22;60000;51.030;7.024;2023-04-15T00:43:02;6.06;71.72
72128;DHT22;60000;51.030;7.024;2023-04-15T00:45:28;5.99;72.04
72128;DHT22;60000;51.030;7.024;2023-04-15T00:47:54;5.95;72.08
72128;DHT22;60000;51.030;7.024;2023-04-15T00:50:20;5.91;72.46
72128;DHT22;60000;51.030;7.024;2023-04-15T00:52:45;5.82;72.31
72128;DHT22;60000;51.030;7.024;2023-04-15T00:55:11;5.81;72.42
72128;DHT22;60000;51.030;7.024;2023-04-15T00:57:37;5.73;72.53
72128;DHT22;60000;51.030;7.024;2023-04-15T01:00:03;5.69;72.73
72128;DHT22;60000;51.030;7.024;2023-04-15T01:02:30;5.64;72.91
72128;DHT22;60000;51.030;7.024;2023-04-15T01:04:56;5.61;73.16
72128;DHT22;60000;51.030;7.024;2023-04-15T01:07:22;5.56;73.47
72128;DHT22;60000;51.030;7.024;2023-04-15T01:09:47;5.52;73.45
72128;DHT22;60000;51.030;7.024;2023-04-15T01:12:13;5.47;73.64
72128;DHT22;60000;51.030;7.024;2023-04-15T01:14:40;5.43;73.73
72128;DHT22;60000;51.030;7.024;2023-04-15T01:17:06;5.38;73.96
72128;DHT22;60000;51.030;7.024;2023-04-15T01:19:31;5.34;73.92
72128;DHT22;60000;51.030;7.024;2023-04-15T01:21:57;5.34;74.06
72128;DHT22;60000;51.030;7.024;2023-04-15T01:24:23;5.28;74.27
72128;DHT22;60000;51.030;7.024;2023-04-15T01:26:50;5.26;74.22
72128;DHT22;60000;51.030;7.024;2023-04-15T01:29:16;5.20;74.29
72128;DHT22;60000;51.030;7.024;2023-04-15T01:31:53;5.17;74.58
72128;DHT22;60000;51.030;7.024;2023-04-15T01:34:19;5.16;74.95
72128;DHT22;60000;51.030;7.024;2023-04-15T01:36:45;5.09;75.16
72128;DHT22;60000;51.030;7.024;2023-04-15T01:39:11;5.07;75.16
72128;DHT22;60000;51.030;7.024;2023-04-15T01:41:36;5.03;75.26
72128;DHT22;60000;51.030;7.024;2023-04-15T01:44:02;5.00;75.15
72128;DHT22;60000;51.030;7.024;2023-04-15T01:46:27;4.94;75.22
72128;DHT22;60000;51.030;7.024;2023-04-15T01:48:53;4.94;75.41
72128;DHT22;60000;51.030;7.024;2023-04-15T01:51:18;4.89;75.70
72128;DHT22;60000;51.030;7.024;2023-04-15T01:53:44;4.84;75.86
72128;DHT22;60000;51.030;7.024;2023-04-15T01:56:09;4.83;75.70
72128;DHT22;60000;51.030;7.024;2023-04-15T01:58:35;4.79;76.15
72128;DHT22;60000;51.030;7.024;2023-04-15T02:01:00;4.76;76.10
72128;DHT22;60000;51.030;7.024;2023-04-15T02:03:27;4.73;76.15
72128;DHT22;60000;51.030;7.024;2023-04-15T02:05:53;4.71;76.83
72128;DHT22;60000;51.030;7.024;2023-04-15T02:08:19;4.71;76.67
72128;DHT22;60000;51.030;7.024;2023-04-15T02:10:44;4.65;76.83
72128;DHT22;60000;51.030;7.024;2023-04-15T02:13:10;4.62;76.80
72128;DHT22;60000;51.030;7.024;2023-04-15T02:15:35;4.63;77.04
72128;DHT22;60000;51.030;7.024;2023-04-15T02:18:00;4.59;77.13
72128;DHT22;60000;51.030;7.024;2023-04-15T02:20:26;4.59;76.86
72128;DHT22;60000;51.030;7.024;2023-04-15T02:22:51;4.58;77.03
72128;DHT22;60000;51.030;7.024;2023-04-15T02:25:17;4.56;77.16
72128;DHT22;60000;51.030;7.024;2023-04-15T02:27:42;4.58;77.23
72128;DHT22;60000;51.030;7.024;2023-04-15T02:30:10;4.58;77.27
72128;DHT22;60000;51.030;7.024;2023-04-15T02:32:36;4.58;77.29
72128;DHT22;60000;51.030;7.024;2023-04-15T02:35:06;4.58;77.30
72128;DHT22;60000;51.030;7.024;2023-04-15T02:37:32;4.59;77.44
72128;DHT22;60000;51.030;7.024;2023-04-15T02:40:01;4.59;77.42
72128;DHT22;60000;51.030;7.024;2023-04-15T02:42:26;4.56;77.36
72128;DHT22;60000;51.030;7.024;2023-04-15T02:44:54;4.54;77.29
72128;DHT22;60000;51.030;7.024;2023-04-15T02:47:20;4.59;77.88
72128;DHT22;60000;51.030;7.024;2023-04-15T02:49:45;4.62;78.29
72128;DHT22;60000;51.030;7.024;2023-04-15T02:52:11;4.61;78.52
72128;DHT22;60000;51.030;7.024;2023-04-15T02:54:36;4.59;78.44
72128;DHT22;60000;51.030;7.024;2023-04-15T02:57:02;4.61;78.73
72128;DHT22;60000;51.030;7.024;2023-04-15T02:59:30;4.58;78.77
72128;DHT22;60000;51.030;7.024;2023-04-15T03:01:55;4.55;78.89
72128;DHT22;60000;51.030;7.024;2023-04-15T03:04:25;4.55;78.95
72128;DHT22;60000;51.030;7.024;2023-04-15T03:06:50;4.51;78.97
72128;DHT22;60000;51.030;7.024;2023-04-15T03:09:16;4.46;79.04
72128;DHT22;60000;51.030;7.024;2023-04-15T03:11:41;4.48;79.27
72128;DHT22;60000;51.030;7.024;2023-04-15T03:14:06;4.42;79.33
72128;DHT22;60000;51.030;7.024;2023-04-15T03:16:32;4.38;79.43
72128;DHT22;60000;51.030;7.024;2023-04-15T03:18:57;4.34;79.09
72128;DHT22;60000;51.030;7.024;2023-04-15T03:21:22;4.31;79.09
72128;DHT22;60000;51.030;7.024;2023-04-15T03:23:48;4.27;79.20
72128;DHT22;60000;51.030;7.024;2023-04-15T03:26:25;4.18;79.08
72128;DHT22;60000;51.030;7.024;2023-04-15T03:28:50;4.18;79.83
72128;DHT22;60000;51.030;7.024;2023-04-15T03:31:15;4.18;80.19
72128;DHT22;60000;51.030;7.024;2023-04-15T03:33:41;4.18;80.02
72128;DHT22;60000;51.030;7.024;2023-04-15T03:36:06;4.15;80.10
72128;DHT22;60000;51.030;7.024;2023-04-15T03:38:31;4.11;80.25
72128;DHT22;60000;51.030;7.024;2023-04-15T03:40:57;4.10;80.25
72128;DHT22;60000;51.030;7.024;2023-04-15T03:43:22;4.08;80.45
72128;DHT22;60000;51.030;7.024;2023-04-15T03:45:47;4.07;80.61
72128;DHT22;60000;51.030;7.024;2023-04-15T03:48:13;4.04;80.70
72128;DHT22;60000;51.030;7.024;2023-04-15T03:50:38;4.04;80.77
72128;DHT22;60000;51.030;7.024;2023-04-15T03:53:03;4.07;80.83
72128;DHT22;60000;51.030;7.024;2023-04-15T03:55:29;4.01;80.59
72128;DHT22;60000;51.030;7.024;2023-04-15T03:57:54;3.98;80.60
72128;DHT22;60000;51.030;7.024;2023-04-15T04:00:19;3.94;80.64
72128;DHT22;60000;51.030;7.024;2023-04-15T04:02:45;3.93;81.12
72128;DHT22;60000;51.030;7.024;2023-04-15T04:05:10;3.91;81.18
72128;DHT22;60000;51.030;7.024;2023-04-15T04:07:35;3.90;80.96
72128;DHT22;60000;51.030;7.024;2023-04-15T04:10:01;3.87;81.26
72128;DHT22;60000;51.030;7.024;2023-04-15T04:12:27;3.90;81.46
72128;DHT22;60000;51.030;7.024;2023-04-15T04:14:53;3.89;81.68
72128;DHT22;60000;51.030;7.024;2023-04-15T04:17:18;3.89;81.71
72128;DHT22;60000;51.030;7.024;2023-04-15T04:19:43;3.84;81.96
72128;DHT22;60000;51.030;7.024;2023-04-15T04:22:09;3.83;82.01
72128;DHT22;60000;51.030;7.024;2023-04-15T04:24:34;3.80;81.89
72128;DHT22;60000;51.030;7.024;2023-04-15T04:27:00;3.76;81.66
72128;DHT22;60000;51.030;7.024;2023-04-15T04:29:25;3.72;81.67
72128;DHT22;60000;51.030;7.024;2023-04-15T04:31:51;3.69;81.91
72128;DHT22;60000;51.030;7.024;2023-04-15T04:34:16;3.67;81.94
72128;DHT22;60000;51.030;7.024;2023-04-15T04:36:41;3.66;82.15
72128;DHT22;60000;51.030;7.024;2023-04-15T04:39:07;3.60;82.36
72128;DHT22;60000;51.030;7.024;2023-04-15T04:41:32;3.59;82.21
72128;DHT22;60000;51.030;7.024;2023-04-15T04:43:58;3.56;82.29
72128;DHT22;60000;51.030;7.024;2023-04-15T04:46:23;3.52;82.33
72128;DHT22;60000;51.030;7.024;2023-04-15T04:48:49;3.51;82.56
72128;DHT22;60000;51.030;7.024;2023-04-15T04:51:14;3.51;82.72
72128;DHT22;60000;51.030;7.024;2023-04-15T04:53:40;3.52;83.19
72128;DHT22;60000;51.030;7.024;2023-04-15T04:56:05;3.53;83.16
72128;DHT22;60000;51.030;7.024;2023-04-15T04:58:31;3.53;83.23
72128;DHT22;60000;51.030;7.024;2023-04-15T05:00:56;3.55;83.15
72128;DHT22;60000;51.030;7.024;2023-04-15T05:03:22;3.58;83.36
72128;DHT22;60000;51.030;7.024;2023-04-15T05:05:47;3.56;83.33
72128;DHT22;60000;51.030;7.024;2023-04-15T05:08:14;3.60;83.21
72128;DHT22;60000;51.030;7.024;2023-04-15T05:10:39;3.59;83.25
72128;DHT22;60000;51.030;7.024;2023-04-15T05:13:05;3.56;83.28
72128;DHT22;60000;51.030;7.024;2023-04-15T05:15:30;3.56;83.05
72128;DHT22;60000;51.030;7.024;2023-04-15T05:17:56;3.56;82.89
72128;DHT22;60000;51.030;7.024;2023-04-15T05:20:22;3.56;83.16
72128;DHT22;60000;51.030;7.024;2023-04-15T05:22:47;3.59;83.32
72128;DHT22;60000;51.030;7.024;2023-04-15T05:25:12;3.58;83.30
72128;DHT22;60000;51.030;7.024;2023-04-15T05:27:38;3.60;83.38
72128;DHT22;60000;51.030;7.024;2023-04-15T05:30:03;3.60;83.54
72128;DHT22;60000;51.030;7.024;2023-04-15T05:32:29;3.63;83.55
72128;DHT22;60000;51.030;7.024;2023-04-15T05:34:55;3.66;83.77
72128;DHT22;60000;51.030;7.024;2023-04-15T05:37:20;3.67;83.93
72128;DHT22;60000;51.030;7.024;2023-04-15T05:39:46;3.74;83.99
72128;DHT22;60000;51.030;7.024;2023-04-15T05:42:12;3.83;84.07
72128;DHT22;60000;51.030;7.024;2023-04-15T05:44:37;3.90;84.15
72128;DHT22;60000;51.030;7.024;2023-04-15T05:47:03;3.97;84.44
72128;DHT22;60000;51.030;7.024;2023-04-15T05:49:28;4.07;84.32
72128;DHT22;60000;51.030;7.024;2023-04-15T05:51:54;4.20;84.29
72128;DHT22;60000;51.030;7.024;2023-04-15T05:54:20;4.30;84.26
72128;DHT22;60000;51.030;7.024;2023-04-15T05:56:46;4.41;84.17
72128;DHT22;60000;51.030;7.024;2023-04-15T05:59:12;4.55;84.14
72128;DHT22;60000;51.030;7.024;2023-04-15T06:01:37;4.69;84.07
72128;DHT22;60000;51.030;7.024;2023-04-15T06:04:02;4.83;84.24
72128;DHT22;60000;51.030;7.024;2023-04-15T06:06:28;4.97;83.92
72128;DHT22;60000;51.030;7.024;2023-04-15T06:08:53;5.10;83.52
72128;DHT22;60000;51.030;7.024;2023-04-15T06:11:20;5.27;83.63
72128;DHT22;60000;51.030;7.024;2023-04-15T06:13:46;5.38;82.68
72128;DHT22;60000;51.030;7.024;2023-04-15T06:16:11;5.52;82.70
72128;DHT22;60000;51.030;7.024;2023-04-15T06:18:36;5.68;82.31
72128;DHT22;60000;51.030;7.024;2023-04-15T06:21:02;5.86;81.75
72128;DHT22;60000;51.030;7.024;2023-04-15T06:23:27;6.06;81.64
72128;DHT22;60000;51.030;7.024;2023-04-15T06:25:53;6.22;81.02
72128;DHT22;60000;51.030;7.024;2023-04-15T06:28:18;6.40;80.45
72128;DHT22;60000;51.030;7.024;2023-04-15T06:30:43;6.60;79.47
72128;DHT22;60000;51.030;7.024;2023-04-15T06:33:09;6.74;78.77
72128;DHT22;60000;51.030;7.024;2023-04-15T06:35:34;6.91;78.01
72128;DHT22;60000;51.030;7.024;2023-04-15T06:38:00;7.11;77.15
72128;DHT22;60000;51.030;7.024;2023-04-15T06:40:25;7.26;76.88
72128;DHT22;60000;51.030;7.024;2023-04-15T06:42:51;7.51;76.25
72128;DHT22;60000;51.030;7.024;2023-04-15T06:45:16;7.85;76.62
72128;DHT22;60000;51.030;7.024;2023-04-15T06:47:41;8.19;75.71
72128;DHT22;60000;51.030;7.024;2023-04-15T06:50:08;8.46;74.21
72128;DHT22;60000;51.030;7.024;2023-04-15T06:52:34;8.80;75.20
72128;DHT22;60000;51.030;7.024;2023-04-15T06:55:00;9.07;74.16
72128;DHT22;60000;51.030;7.024;2023-04-15T06:57:26;9.36;73.40
72128;DHT22;60000;51.030;7.024;2023-04-15T06:59:53;9.55;70.81
72128;DHT22;60000;51.030;7.024;2023-04-15T07:02:18;9.73;69.64
72128;DHT22;60000;51.030;7.024;2023-04-15T07:04:44;9.96;69.17
72128;DHT22;60000;51.030;7.024;2023-04-15T07:07:09;10.34;69.33
72128;DHT22;60000;51.030;7.024;2023-04-15T07:09:34;10.82;68.86
72128;DHT22;60000;51.030;7.024;2023-04-15T07:12:00;11.27;68.47
72128;DHT22;60000;51.030;7.024;2023-04-15T07:14:25;11.66;65.55
72128;DHT22;60000;51.030;7.024;2023-04-15T07:16:51;11.89;63.67
72128;DHT22;60000;51.030;7.024;2023-04-15T07:19:17;12.12;62.14
72128;DHT22;60000;51.030;7.024;2023-04-15T07:21:42;12.37;61.41
72128;DHT22;60000;51.030;7.024;2023-04-15T07:24:07;12.56;59.75
72128;DHT22;60000;51.030;7.024;2023-04-15T07:26:34;12.74;57.43
72128;DHT22;60000;51.030;7.024;2023-04-15T07:28:59;12.94;58.24
72128;DHT22;60000;51.030;7.024;2023-04-15T07:31:25;13.19;56.36
72128;DHT22;60000;51.030;7.024;2023-04-15T07:33:51;13.42;57.21
72128;DHT22;60000;51.030;7.024;2023-04-15T07:36:17;13.58;54.74
72128;DHT22;60000;51.030;7.024;2023-04-15T07:38:42;13.70;54.20
72128;DHT22;60000;51.030;7.024;2023-04-15T07:41:08;13.73;53.73
72128;DHT22;60000;51.030;7.024;2023-04-15T07:43:33;13.77;52.86
72128;DHT22;60000;51.030;7.024;2023-04-15T07:45:59;13.69;52.54
72128;DHT22;60000;51.030;7.024;2023-04-15T07:48:24;13.59;51.24
72128;DHT22;60000;51.030;7.024;2023-04-15T07:50:50;13.56;52.69
72128;DHT22;60000;51.030;7.024;2023-04-15T07:53:15;13.65;51.70
72128;DHT22;60000;51.030;7.024;2023-04-15T07:55:40;13.72;51.67
72128;DHT22;60000;51.030;7.024;2023-04-15T07:58:06;13.79;51.23
72128;DHT22;60000;51.030;7.024;2023-04-15T08:00:31;13.75;50.08
72128;DHT22;60000;51.030;7.024;2023-04-15T08:02:56;13.80;50.57
72128;DHT22;60000;51.030;7.024;2023-04-15T08:05:23;13.89;49.90
72128;DHT22;60000;51.030;7.024;2023-04-15T08:07:50;14.13;50.61
72128;DHT22;60000;51.030;7.024;2023-04-15T08:10:15;13.99;49.35
72128;DHT22;60000;51.030;7.024;2023-04-15T08:12:41;13.91;50.31
72128;DHT22;60000;51.030;7.024;2023-04-15T08:15:07;13.84;50.05
72128;DHT22;60000;51.030;7.024;2023-04-15T08:17:33;13.80;51.37
72128;DHT22;60000;51.030;7.024;2023-04-15T08:19:58;13.94;51.52
72128;DHT22;60000;51.030;7.024;2023-04-15T08:22:23;13.83;50.25
72128;DHT22;60000;51.030;7.024;2023-04-15T08:24:49;13.72;51.32
72128;DHT22;60000;51.030;7.024;2023-04-15T08:27:15;13.77;50.68
72128;DHT22;60000;51.030;7.024;2023-04-15T08:29:40;13.61;50.57
72128;DHT22;60000;51.030;7.024;2023-04-15T08:32:06;13.46;51.02
72128;DHT22;60000;51.030;7.024;2023-04-15T08:34:31;13.51;51.60
72128;DHT22;60000;51.030;7.024;2023-04-15T08:36:57;13.58;51.08
72128;DHT22;60000;51.030;7.024;2023-04-15T08:39:22;13.32;50.05
72128;DHT22;60000;51.030;7.024;2023-04-15T08:41:55;13.24;50.96
72128;DHT22;60000;51.030;7.024;2023-04-15T08:44:23;13.01;50.50
72128;DHT22;60000;51.030;7.024;2023-04-15T08:46:50;12.84;51.01
72128;DHT22;60000;51.030;7.024;2023-04-15T08:49:18;12.79;52.21
72128;DHT22;60000;51.030;7.024;2023-04-15T08:51:44;12.83;51.77
72128;DHT22;60000;51.030;7.024;2023-04-15T08:54:10;13.07;51.68
72128;DHT22;60000;51.030;7.024;2023-04-15T08:56:37;13.35;52.33
72128;DHT22;60000;51.030;7.024;2023-04-15T08:59:03;13.44;50.95
72128;DHT22;60000;51.030;7.024;2023-04-15T09:01:30;13.53;51.26
72128;DHT22;60000;51.030;7.024;2023-04-15T09:03:56;13.69;50.99
72128;DHT22;60000;51.030;7.024;2023-04-15T09:06:23;13.77;50.40
72128;DHT22;60000;51.030;7.024;2023-04-15T09:08:49;13.69;50.23
72128;DHT22;60000;51.030;7.024;2023-04-15T09:11:14;13.75;49.61
72128;DHT22;60000;51.030;7.024;2023-04-15T09:13:41;13.83;50.52
72128;DHT22;60000;51.030;7.024;2023-04-15T09:16:07;13.84;50.05
72128;DHT22;60000;51.030;7.024;2023-04-15T09:18:33;13.90;50.33
72128;DHT22;60000;51.030;7.024;2023-04-15T09:21:06;13.96;49.98
72128;DHT22;60000;51.030;7.024;2023-04-15T09:23:34;14.14;49.94
72128;DHT22;60000;51.030;7.024;2023-04-15T09:26:00;14.30;50.63
72128;DHT22;60000;51.030;7.024;2023-04-15T09:28:27;14.40;50.59
72128;DHT22;60000;51.030;7.024;2023-04-15T09:30:59;14.58;50.46
72128;DHT22;60000;51.030;7.024;2023-04-15T09:33:26;14.86;48.86
72128;DHT22;60000;51.030;7.024;2023-04-15T09:36:10;14.89;47.24
72128;DHT22;60000;51.030;7.024;2023-04-15T09:38:53;14.68;45.95
72128;DHT22;60000;51.030;7.024;2023-04-15T09:41:19;14.72;48.44
72128;DHT22;60000;51.030;7.024;2023-04-15T09:43:45;15.16;47.26
72128;DHT22;60000;51.030;7.024;2023-04-15T09:46:10;15.60;47.63
72128;DHT22;60000;51.030;7.024;2023-04-15T09:48:35;15.77;46.15
72128;DHT22;60000;51.030;7.024;2023-04-15T09:51:01;16.04;47.35
72128;DHT22;60000;51.030;7.024;2023-04-15T09:53:26;15.92;46.04
72128;DHT22;60000;51.030;7.024;2023-04-15T09:55:57;15.88;45.68
72128;DHT22;60000;51.030;7.024;2023-04-15T09:58:24;15.50;46.80
72128;DHT22;60000;51.030;7.024;2023-04-15T10:00:51;15.19;48.13
72128;DHT22;60000;51.030;7.024;2023-04-15T10:03:22;15.00;47.59
72128;DHT22;60000;51.030;7.024;2023-04-15T10:05:50;15.13;50.39
72128;DHT22;60000;51.030;7.024;2023-04-15T10:08:21;15.18;49.39
72128;DHT22;60000;51.030;7.024;2023-04-15T10:10:48;15.24;50.89
72128;DHT22;60000;51.030;7.024;2023-04-15T10:13:16;15.65;49.18
72128;DHT22;60000;51.030;7.024;2023-04-15T10:15:51;15.75;49.05
72128;DHT22;60000;51.030;7.024;2023-04-15T10:18:20;15.62;47.27
72128;DHT22;60000;51.030;7.024;2023-04-15T10:20:47;15.72;47.81
72128;DHT22;60000;51.030;7.024;2023-04-15T10:23:14;15.95;49.12
72128;DHT22;60000;51.030;7.024;2023-04-15T10:25:40;16.22;48.63
72128;DHT22;60000;51.030;7.024;2023-04-15T10:28:06;15.71;47.80
72128;DHT22;60000;51.030;7.024;2023-04-15T10:30:33;15.58;48.95
72128;DHT22;60000;51.030;7.024;2023-04-15T10:33:00;15.30;48.55
72128;DHT22;60000;51.030;7.024;2023-04-15T10:35:27;15.14;48.90
72128;DHT22;60000;51.030;7.024;2023-04-15T10:37:53;15.07;50.03
72128;DHT22;60000;51.030;7.024;2023-04-15T10:40:29;15.22;50.89
72128;DHT22;60000;51.030;7.024;2023-04-15T10:43:00;15.20;49.78
72128;DHT22;60000;51.030;7.024;2023-04-15T10:45:27;15.12;49.27
72128;DHT22;60000;51.030;7.024;2023-04-15T10:47:57;14.96;49.03
72128;DHT22;60000;51.030;7.024;2023-04-15T10:50:26;14.86;50.03
72128;DHT22;60000;51.030;7.024;2023-04-15T10:52:52;14.91;50.23
72128;DHT22;60000;51.030;7.024;2023-04-15T10:55:20;14.78;51.80
72128;DHT22;60000;51.030;7.024;2023-04-15T10:57:46;14.75;50.33
72128;DHT22;60000;51.030;7.024;2023-04-15T11:00:16;14.60;50.80
72128;DHT22;60000;51.030;7.024;2023-04-15T11:05:19;14.34;51.58
72128;DHT22;60000;51.030;7.024;2023-04-15T11:13:01;14.33;52.64
72128;DHT22;60000;51.030;7.024;2023-04-15T11:15:40;14.37;53.43
72128;DHT22;60000;51.030;7.024;2023-04-15T11:18:14;14.28;52.87
72128;DHT22;60000;51.030;7.024;2023-04-15T11:20:42;14.12;53.45
72128;DHT22;60000;51.030;7.024;2023-04-15T11:23:09;14.17;53.64
72128;DHT22;60000;51.030;7.024;2023-04-15T11:25:35;14.16;53.48
72128;DHT22;60000;51.030;7.024;2023-04-15T11:28:04;14.16;54.02
72128;DHT22;60000;51.030;7.024;2023-04-15T11:30:31;14.20;54.20
72128;DHT22;60000;51.030;7.024;2023-04-15T11:33:02;14.21;54.80
72128;DHT22;60000;51.030;7.024;2023-04-15T11:35:29;14.40;54.86
72128;DHT22;60000;51.030;7.024;2023-04-15T11:37:54;14.69;54.72
72128;DHT22;60000;51.030;7.024;2023-04-15T11:40:28;14.58;51.80
72128;DHT22;60000;51.030;7.024;2023-04-15T11:43:05;14.49;52.83
72128;DHT22;60000;51.030;7.024;2023-04-15T11:45:31;14.54;52.95
72128;DHT22;60000;51.030;7.024;2023-04-15T11:48:10;14.67;53.69
72128;DHT22;60000;51.030;7.024;2023-04-15T11:50:37;14.88;52.91
72128;DHT22;60000;51.030;7.024;2023-04-15T11:53:05;14.89;53.22
72128;DHT22;60000;51.030;7.024;2023-04-15T11:55:40;14.58;51.98
72128;DHT22;60000;51.030;7.024;2023-04-15T11:58:15;14.42;54.15
72128;DHT22;60000;51.030;7.024;2023-04-15T12:00:52;14.41;54.99
72128;DHT22;60000;51.030;7.024;2023-04-15T12:03:25;14.23;55.09
72128;DHT22;60000;51.030;7.024;2023-04-15T12:06:14;13.97;54.96
72128;DHT22;60000;51.030;7.024;2023-04-15T12:09:00;13.70;57.04
72128;DHT22;60000;51.030;7.024;2023-04-15T12:13:53;13.45;57.46
72128;DHT22;60000;51.030;7.024;2023-04-15T12:16:19;13.28;58.42
72128;DHT22;60000;51.030;7.024;2023-04-15T12:18:46;13.22;59.08
72128;DHT22;60000;51.030;7.024;2023-04-15T12:21:12;13.12;58.77
72128;DHT22;60000;51.030;7.024;2023-04-15T12:23:38;13.10;59.79
72128;DHT22;60000;51.030;7.024;2023-04-15T12:26:04;13.08;59.74
72128;DHT22;60000;51.030;7.024;2023-04-15T12:28:31;12.98;59.27
72128;DHT22;60000;51.030;7.024;2023-04-15T12:30:56;12.87;59.31
72128;DHT22;60000;51.030;7.024;2023-04-15T12:33:21;12.76;59.19
72128;DHT22;60000;51.030;7.024;2023-04-15T12:35:47;12.66;59.85
72128;DHT22;60000;51.030;7.024;2023-04-15T12:38:12;12.55;60.27
72128;DHT22;60000;51.030;7.024;2023-04-15T12:40:37;12.56;60.78
72128;DHT22;60000;51.030;7.024;2023-04-15T12:43:03;12.50;61.47
72128;DHT22;60000;51.030;7.024;2023-04-15T12:45:28;12.49;61.95
72128;DHT22;60000;51.030;7.024;2023-04-15T12:47:53;12.43;61.61
72128;DHT22;60000;51.030;7.024;2023-04-15T12:50:19;12.37;62.24
72128;DHT22;60000;51.030;7.024;2023-04-15T12:52:44;12.28;61.85
72128;DHT22;60000;51.030;7.024;2023-04-15T12:55:09;12.18;62.24
72128;DHT22;60000;51.030;7.024;2023-04-15T12:57:34;12.04;63.17
72128;DHT22;60000;51.030;7.024;2023-04-15T13:00:00;11.99;63.43
72128;DHT22;60000;51.030;7.024;2023-04-15T13:02:25;11.91;64.36
72128;DHT22;60000;51.030;7.024;2023-04-15T13:04:53;11.89;63.76
72128;DHT22;60000;51.030;7.024;2023-04-15T13:07:18;11.85;64.19
72128;DHT22;60000;51.030;7.024;2023-04-15T13:09:43;11.84;64.56
72128;DHT22;60000;51.030;7.024;2023-04-15T13:12:09;11.77;64.42
72128;DHT22;60000;51.030;7.024;2023-04-15T13:14:34;11.70;64.89
72128;DHT22;60000;51.030;7.024;2023-04-15T13:16:59;11.61;65.03
72128;DHT22;60000;51.030;7.024;2023-04-15T13:19:25;11.54;65.29
72128;DHT22;60000;51.030;7.024;2023-04-15T13:21:50;11.53;65.61
72128;DHT22;60000;51.030;7.024;2023-04-15T13:24:16;11.48;65.39
72128;DHT22;60000;51.030;7.024;2023-04-15T13:26:41;11.41;65.60
72128;DHT22;60000;51.030;7.024;2023-04-15T13:29:06;11.40;65.96
72128;DHT22;60000;51.030;7.024;2023-04-15T13:31:32;11.38;66.25
72128;DHT22;60000;51.030;7.024;2023-04-15T13:33:57;11.40;66.86
72128;DHT22;60000;51.030;7.024;2023-04-15T13:36:22;11.38;66.47
72128;DHT22;60000;51.030;7.024;2023-04-15T13:38:48;11.37;66.34
72128;DHT22;60000;51.030;7.024;2023-04-15T13:41:13;11.40;66.73
72128;DHT22;60000;51.030;7.024;2023-04-15T13:43:38;11.40;66.65
72128;DHT22;60000;51.030;7.024;2023-04-15T13:46:04;11.40;66.45
72128;DHT22;60000;51.030;7.024;2023-04-15T13:48:30;11.46;67.15
72128;DHT22;60000;51.030;7.024;2023-04-15T13:50:55;11.54;66.99
72128;DHT22;60000;51.030;7.024;2023-04-15T13:53:21;11.66;66.72
72128;DHT22;60000;51.030;7.024;2023-04-15T13:55:46;11.68;66.27
72128;DHT22;60000;51.030;7.024;2023-04-15T13:58:11;11.74;66.55
72128;DHT22;60000;51.030;7.024;2023-04-15T14:00:37;11.82;67.52
72128;DHT22;60000;51.030;7.024;2023-04-15T14:03:02;11.87;67.86
72128;DHT22;60000;51.030;7.024;2023-04-15T14:05:27;11.79;68.30
72128;DHT22;60000;51.030;7.024;2023-04-15T14:07:53;11.74;68.74
72128;DHT22;60000;51.030;7.024;2023-04-15T14:10:18;11.74;69.88
72128;DHT22;60000;51.030;7.024;2023-04-15T14:12:44;11.66;70.09
72128;DHT22;60000;51.030;7.024;2023-04-15T14:15:09;11.82;71.47
72128;DHT22;60000;51.030;7.024;2023-04-15T14:17:35;11.81;69.84
72128;DHT22;60000;51.030;7.024;2023-04-15T14:20:00;11.84;70.66
72128;DHT22;60000;51.030;7.024;2023-04-15T14:22:26;11.82;70.18
72128;DHT22;60000;51.030;7.024;2023-04-15T14:24:51;11.81;70.58
72128;DHT22;60000;51.030;7.024;2023-04-15T14:27:18;11.88;71.14
72128;DHT22;60000;51.030;7.024;2023-04-15T14:29:43;11.91;70.68
72128;DHT22;60000;51.030;7.024;2023-04-15T14:32:09;11.99;71.80
72128;DHT22;60000;51.030;7.024;2023-04-15T14:34:34;12.01;71.38
72128;DHT22;60000;51.030;7.024;2023-04-15T14:37:00;11.92;69.49
72128;DHT22;60000;51.030;7.024;2023-04-15T14:39:26;11.98;71.79
72128;DHT22;60000;51.030;7.024;2023-04-15T14:41:52;11.97;71.23
72128;DHT22;60000;51.030;7.024;2023-04-15T14:44:17;11.91;70.16
72128;DHT22;60000;51.030;7.024;2023-04-15T14:46:42;11.81;69.81
72128;DHT22;60000;51.030;7.024;2023-04-15T14:49:08;11.74;70.55
72128;DHT22;60000;51.030;7.024;2023-04-15T14:51:33;11.68;70.64
72128;DHT22;60000;51.030;7.024;2023-04-15T14:53:59;11.70;70.88
72128;DHT22;60000;51.030;7.024;2023-04-15T14:56:24;11.73;71.27
72128;DHT22;60000;51.030;7.024;2023-04-15T14:58:49;11.81;71.53
72128;DHT22;60000;51.030;7.024;2023-04-15T15:01:17;11.73;70.73
72128;DHT22;60000;51.030;7.024;2023-04-15T15:03:43;11.74;71.51
72128;DHT22;60000;51.030;7.024;2023-04-15T15:06:08;11.67;71.55
72128;DHT22;60000;51.030;7.024;2023-04-15T15:08:33;11.63;71.19
72128;DHT22;60000;51.030;7.024;2023-04-15T15:11:00;11.53;71.35
72128;DHT22;60000;51.030;7.024;2023-04-15T15:13:26;11.48;72.25
72128;DHT22;60000;51.030;7.024;2023-04-15T15:15:51;11.46;72.06
72128;DHT22;60000;51.030;7.024;2023-04-15T15:18:17;11.43;72.74
72128;DHT22;60000;51.030;7.024;2023-04-15T15:20:45;11.43;73.41
72128;DHT22;60000;51.030;7.024;2023-04-15T15:23:11;11.41;73.39
72128;DHT22;60000;51.030;7.024;2023-04-15T15:25:36;11.40;73.55
72128;DHT22;60000;51.030;7.024;2023-04-15T15:28:01;11.37;73.51
72128;DHT22;60000;51.030;7.024;2023-04-15T15:30:27;11.26;73.37
72128;DHT22;60000;51.030;7.024;2023-04-15T15:32:52;11.24;74.01
72128;DHT22;60000;51.030;7.024;2023-04-15T15:35:17;11.22;74.62
72128;DHT22;60000;51.030;7.024;2023-04-15T15:37:44;11.12;74.06
72128;DHT22;60000;51.030;7.024;2023-04-15T15:40:10;11.08;74.25
72128;DHT22;60000;51.030;7.024;2023-04-15T15:42:36;11.06;74.84